Compton, Arkansas
Current Conditions -  °F | °C
As of 3:53 AM on Tuesday 27 Jan 2015 (Local Time) from KHRO Reporting Station
Clear Clear  
Wind Chill: 42°   Ceiling: Unl
Heat Index: 46°   Visibility: 10mi
Dew Point: 34°   Wind: 8mph
Humidity: 63%   Direction: 300°WNW
Pressure: 30.04"   Gusts: NA
Location:  36.1°N, 93.3°W
Report Text: KHRO 270953Z AUTO 30007KT 10SM CLR 08/01 A3004 RMK AO2 SLP170 T00780011
Loading
Personal Weather Stations






























Interactive Weather Map New forecast layout! Learn more

10-Day Weather Forecast

Advertisements
Track Severe Weather on mobile